Time;durP1;ratioP1;P1;durP2;ratioP2;P2;SDS_P1;SDS_P2;PMS_P1;PMS_P2;Temp;Humidity;BMP_temperature;BMP_pressure;BME280_temperature;BME280_humidity;BME280_pressure;Samples;Min_cycle;Max_cycle;Signal;HPM_P1;HPM_P2
2022/11/21 00:00:51;;;;;;;24.63;18.20;;;1.50;99.90;;;;;;5058148;28;20040;-65
2022/11/21 00:03:18;;;;;;;25.80;19.15;;;1.50;99.90;;;;;;5065684;28;20499;-64
2022/11/21 00:05:46;;;;;;;25.73;18.35;;;1.50;99.90;;;;;;5062446;28;20033;-65
2022/11/21 00:08:16;;;;;;;23.67;18.40;;;1.50;99.90;;;;;;5062626;28;20125;-65
2022/11/21 00:10:42;;;;;;;25.50;18.38;;;1.50;99.90;;;;;;5055809;28;20087;-64
2022/11/21 00:13:13;;;;;;;25.33;19.40;;;1.60;99.90;;;;;;5062440;28;20036;-64
2022/11/21 00:15:39;;;;;;;24.45;18.45;;;1.60;99.90;;;;;;5060680;28;20040;-64
2022/11/21 00:18:04;;;;;;;26.70;19.20;;;1.60;99.90;;;;;;5064963;28;20048;-64
2022/11/21 00:20:30;;;;;;;25.20;19.30;;;1.60;99.90;;;;;;5063425;28;20048;-64
2022/11/21 00:22:56;;;;;;;26.48;19.65;;;1.60;99.90;;;;;;5062619;28;20057;-65
2022/11/21 00:25:22;;;;;;;28.27;19.40;;;1.60;99.90;;;;;;5064706;28;20047;-65
2022/11/21 00:27:48;;;;;;;27.00;20.10;;;1.60;99.90;;;;;;5061699;28;20137;-65
2022/11/21 00:30:14;;;;;;;24.55;18.48;;;1.60;99.90;;;;;;5060458;28;20044;-64
2022/11/21 00:32:40;;;;;;;25.17;18.52;;;1.60;99.90;;;;;;5062394;28;20483;-64
2022/11/21 00:35:06;;;;;;;25.40;18.80;;;1.60;99.90;;;;;;5061961;28;20529;-65
2022/11/21 00:37:32;;;;;;;24.33;18.38;;;1.60;99.90;;;;;;5058151;28;20076;-64
2022/11/21 00:39:58;;;;;;;25.92;18.75;;;1.60;99.90;;;;;;5060847;28;20136;-64
2022/11/21 00:42:24;;;;;;;21.00;17.73;;;1.50;99.90;;;;;;5060429;28;20128;-64
2022/11/21 00:44:49;;;;;;;25.00;18.83;;;1.50;99.90;;;;;;5064397;28;20059;-65
2022/11/21 00:47:15;;;;;;;23.45;18.02;;;1.50;99.90;;;;;;5060235;28;20120;-64
2022/11/21 00:49:41;;;;;;;23.13;17.98;;;1.50;99.90;;;;;;5064806;28;20035;-64
2022/11/21 00:52:07;;;;;;;23.55;18.52;;;1.50;99.90;;;;;;5060410;28;20325;-64
2022/11/21 00:54:32;;;;;;;24.15;17.83;;;1.50;99.90;;;;;;5063130;28;20033;-65
2022/11/21 00:56:58;;;;;;;24.80;18.42;;;1.50;99.90;;;;;;5063229;28;20402;-64
2022/11/21 00:59:24;;;;;;;25.63;18.73;;;1.50;99.90;;;;;;5065149;28;20040;-64
2022/11/21 01:01:49;;;;;;;22.58;17.52;;;1.50;99.90;;;;;;5059983;28;20382;-64
2022/11/21 01:04:15;;;;;;;24.02;18.08;;;1.50;99.90;;;;;;5065562;28;20222;-64
2022/11/21 01:06:41;;;;;;;26.35;19.70;;;1.50;99.90;;;;;;5060650;28;20044;-65
2022/11/21 01:09:07;;;;;;;29.73;19.98;;;1.60;99.90;;;;;;5058122;28;20036;-64
2022/11/21 01:11:32;;;;;;;23.63;17.85;;;1.50;99.90;;;;;;5059233;28;20113;-65
2022/11/21 01:13:58;;;;;;;24.90;18.27;;;1.60;99.90;;;;;;5062574;28;20036;-65
2022/11/21 01:16:26;;;;;;;24.65;18.85;;;1.70;99.90;;;;;;5056379;28;20191;-65
2022/11/21 01:18:52;;;;;;;23.02;18.08;;;1.60;99.90;;;;;;5060881;28;20041;-65
2022/11/21 01:21:23;;;;;;;25.85;18.52;;;1.50;99.90;;;;;;5054777;28;20685;-64
2022/11/21 01:23:49;;;;;;;26.25;18.30;;;1.50;99.90;;;;;;5058309;28;20041;-65
2022/11/21 01:26:17;;;;;;;26.85;19.08;;;1.50;99.90;;;;;;5062246;28;20032;-65
2022/11/21 01:28:44;;;;;;;24.40;17.92;;;1.50;99.90;;;;;;5060812;28;20140;-65
2022/11/21 01:31:15;;;;;;;24.80;18.08;;;1.50;99.90;;;;;;5059012;28;20083;-64
2022/11/21 01:33:42;;;;;;;23.92;18.35;;;1.50;99.90;;;;;;5059138;28;20032;-65
2022/11/21 01:36:13;;;;;;;25.77;18.80;;;1.50;99.90;;;;;;5059720;28;20044;-64
2022/11/21 01:38:40;;;;;;;23.88;18.52;;;1.50;99.90;;;;;;5061611;28;20132;-65
2022/11/21 01:41:07;;;;;;;21.85;18.80;;;1.60;99.90;;;;;;5061713;28;20484;-65
2022/11/21 01:43:33;;;;;;;25.42;18.88;;;1.50;99.90;;;;;;5055593;28;20058;-65
2022/11/21 01:46:08;;;;;;;26.75;19.65;;;1.50;99.90;;;;;;5059775;28;20116;-65
2022/11/21 01:48:53;;;;;;;25.00;19.10;;;1.50;99.90;;;;;;5067324;28;20135;-64
2022/11/21 01:51:56;;;;;;;25.30;19.10;;;1.50;99.90;;;;;;5061813;28;20132;-64
2022/11/21 01:54:44;;;;;;;26.42;18.95;;;1.60;99.90;;;;;;5054087;28;20049;-65
2022/11/21 01:57:18;;;;;;;26.65;19.33;;;1.50;99.90;;;;;;5063983;28;20428;-65
2022/11/21 02:00:22;;;;;;;25.98;19.10;;;1.50;99.90;;;;;;5060584;28;20060;-64
2022/11/21 02:02:52;;;;;;;25.90;18.83;;;1.50;99.90;;;;;;5015959;28;20055;-66
2022/11/21 02:05:24;;;;;;;23.77;18.92;;;1.60;99.90;;;;;;5052610;28;20059;-66
2022/11/21 02:07:52;;;;;;;24.73;18.58;;;1.60;99.90;;;;;;5062617;28;20029;-66
2022/11/21 02:10:19;;;;;;;25.15;20.17;;;1.60;99.90;;;;;;5064857;28;20048;-66
2022/11/21 02:12:56;;;;;;;28.65;19.40;;;1.50;99.90;;;;;;5058485;28;20044;-66
2022/11/21 02:15:26;;;;;;;23.73;17.73;;;1.60;99.90;;;;;;5062762;28;20508;-66
2022/11/21 02:17:52;;;;;;;25.80;18.27;;;1.50;99.90;;;;;;5060377;28;20147;-66
2022/11/21 02:20:23;;;;;;;26.13;19.75;;;1.50;99.90;;;;;;5058213;28;20048;-66
2022/11/21 02:23:28;;;;;;;27.02;20.60;;;1.60;99.90;;;;;;5061249;28;20057;-66
2022/11/21 02:25:54;;;;;;;26.52;19.95;;;1.60;99.90;;;;;;5055390;28;20170;-66
2022/11/21 02:28:22;;;;;;;25.75;19.00;;;1.60;99.90;;;;;;5063017;28;20376;-66
2022/11/21 02:30:48;;;;;;;26.63;19.55;;;1.60;99.90;;;;;;5055298;28;20049;-66
2022/11/21 02:33:14;;;;;;;25.10;19.17;;;1.60;99.90;;;;;;5058947;28;20123;-66
2022/11/21 02:35:40;;;;;;;25.65;18.30;;;1.60;99.90;;;;;;5056593;28;20049;-66
2022/11/21 02:38:19;;;;;;;26.17;18.95;;;1.60;99.90;;;;;;5059703;28;20083;-66
2022/11/21 02:40:59;;;;;;;27.05;19.85;;;1.60;99.90;;;;;;5061468;28;20157;-66
2022/11/21 02:43:31;;;;;;;24.42;18.35;;;1.60;99.90;;;;;;5056984;28;20060;-66
2022/11/21 02:45:57;;;;;;;25.60;19.00;;;1.60;99.90;;;;;;5058730;28;20372;-66
2022/11/21 02:48:23;;;;;;;26.30;19.48;;;1.60;99.90;;;;;;5060781;28;20043;-66
2022/11/21 02:50:49;;;;;;;25.75;19.20;;;1.50;99.90;;;;;;5057122;28;20127;-66
2022/11/21 02:53:17;;;;;;;24.05;18.92;;;1.50;99.90;;;;;;5060155;28;20040;-66
2022/11/21 02:55:44;;;;;;;28.73;19.80;;;1.50;99.90;;;;;;5060419;28;20419;-66
2022/11/21 02:58:11;;;;;;;26.30;19.30;;;1.50;99.90;;;;;;5057326;28;20040;-66
2022/11/21 03:00:39;;;;;;;25.33;18.92;;;1.50;99.90;;;;;;5058725;28;20441;-66
2022/11/21 03:03:05;;;;;;;24.63;18.65;;;1.40;99.90;;;;;;5058039;28;20110;-66
2022/11/21 03:05:30;;;;;;;22.80;17.40;;;1.40;99.90;;;;;;5061558;28;20529;-66
2022/11/21 03:07:56;;;;;;;24.27;18.45;;;1.30;99.90;;;;;;5060442;28;20032;-66
2022/11/21 03:10:22;;;;;;;25.45;19.30;;;1.20;99.90;;;;;;5059554;28;20123;-66
2022/11/21 03:12:47;;;;;;;24.60;18.73;;;1.10;99.90;;;;;;5056128;28;20052;-66
2022/11/21 03:15:15;;;;;;;25.58;19.15;;;1.00;99.90;;;;;;5060167;28;20112;-66
2022/11/21 03:17:41;;;;;;;24.42;19.08;;;1.00;99.90;;;;;;5060422;28;20247;-66
2022/11/21 03:20:08;;;;;;;23.10;17.52;;;0.80;99.90;;;;;;5056696;28;20040;-66
2022/11/21 03:22:34;;;;;;;25.30;18.35;;;0.80;99.90;;;;;;5057725;28;20118;-66
2022/11/21 03:25:00;;;;;;;23.88;18.00;;;0.70;99.90;;;;;;5060368;28;20040;-66
2022/11/21 03:27:25;;;;;;;23.88;18.25;;;0.70;99.90;;;;;;5055922;28;20041;-66
2022/11/21 03:29:51;;;;;;;24.75;18.05;;;0.70;99.90;;;;;;5058050;28;20047;-66
2022/11/21 03:32:17;;;;;;;23.20;18.40;;;0.70;99.90;;;;;;5056417;28;20127;-66
2022/11/21 03:34:43;;;;;;;26.58;17.52;;;0.60;99.90;;;;;;5059047;28;20051;-66
2022/11/21 03:37:09;;;;;;;25.50;19.02;;;0.60;99.90;;;;;;5056818;28;20045;-66
2022/11/21 03:39:34;;;;;;;25.08;19.05;;;0.60;99.90;;;;;;5058582;28;20111;-66
2022/11/21 03:42:00;;;;;;;25.02;18.77;;;0.50;99.90;;;;;;5061864;28;20067;-66
2022/11/21 03:44:26;;;;;;;26.48;19.60;;;0.50;99.90;;;;;;5062442;28;20043;-66
2022/11/21 03:46:51;;;;;;;27.75;19.40;;;0.50;99.90;;;;;;5059445;28;20506;-66
2022/11/21 03:49:17;;;;;;;28.73;20.65;;;0.40;99.90;;;;;;5064098;28;20132;-66
2022/11/21 03:51:43;;;;;;;28.92;18.95;;;0.40;99.90;;;;;;5062039;28;20129;-66
2022/11/21 03:54:09;;;;;;;25.02;18.27;;;0.30;99.90;;;;;;5064296;28;20472;-66
2022/11/21 03:56:35;;;;;;;25.67;18.35;;;0.20;99.90;;;;;;5063387;28;20052;-66
2022/11/21 03:59:02;;;;;;;29.00;19.40;;;0.10;99.90;;;;;;5060418;28;20044;-66
2022/11/21 04:01:28;;;;;;;26.25;18.90;;;0.10;99.90;;;;;;5062299;28;20052;-66
2022/11/21 04:03:54;;;;;;;28.02;19.80;;;0.00;99.90;;;;;;5061018;28;20033;-66
2022/11/21 04:06:21;;;;;;;25.95;18.48;;;0.00;99.90;;;;;;5060263;28;20032;-66
2022/11/21 04:08:47;;;;;;;25.33;18.58;;;-0.10;99.90;;;;;;5055839;28;20041;-66
2022/11/21 04:11:13;;;;;;;31.95;20.02;;;-0.20;99.90;;;;;;5067623;28;20048;-66
2022/11/21 04:13:39;;;;;;;27.17;18.95;;;-0.20;99.90;;;;;;5062271;28;20033;-66
2022/11/21 04:16:05;;;;;;;29.35;20.25;;;-0.20;99.90;;;;;;5063542;28;20042;-66
2022/11/21 04:18:30;;;;;;;26.30;18.73;;;-0.30;99.90;;;;;;5062928;28;20457;-65
2022/11/21 04:20:58;;;;;;;26.40;18.45;;;-0.30;99.90;;;;;;5062410;28;20132;-66
2022/11/21 04:23:24;;;;;;;28.90;19.27;;;-0.30;99.90;;;;;;5063607;28;20459;-66
2022/11/21 04:25:50;;;;;;;28.73;19.02;;;-0.30;99.90;;;;;;5062097;28;20039;-66
2022/11/21 04:28:16;;;;;;;24.67;17.95;;;-0.40;99.90;;;;;;5059987;28;20568;-66
2022/11/21 04:30:42;;;;;;;24.75;18.85;;;-0.40;99.90;;;;;;5060100;28;20047;-65
2022/11/21 04:33:07;;;;;;;29.60;20.10;;;-0.40;99.90;;;;;;5060031;28;20431;-66
2022/11/21 04:35:33;;;;;;;30.30;20.17;;;-0.50;99.90;;;;;;5063411;28;20051;-66
2022/11/21 04:37:59;;;;;;;30.60;20.40;;;-0.50;99.90;;;;;;5061467;28;20044;-66
2022/11/21 04:40:24;;;;;;;28.63;19.15;;;-0.50;99.90;;;;;;5063120;28;20036;-66
2022/11/21 04:42:50;;;;;;;29.33;19.65;;;-0.50;99.90;;;;;;5063448;28;20065;-65
2022/11/21 04:45:16;;;;;;;28.95;20.17;;;-0.60;99.90;;;;;;5054102;28;20118;-65
2022/11/21 04:47:45;;;;;;;26.88;19.50;;;-0.70;99.90;;;;;;5061249;28;20098;-66
2022/11/21 04:50:14;;;;;;;30.13;19.70;;;-0.70;99.90;;;;;;5056935;28;20051;-65
2022/11/21 04:52:41;;;;;;;25.27;18.17;;;-0.70;99.90;;;;;;5058669;28;20063;-66
2022/11/21 04:55:07;;;;;;;27.02;19.30;;;-0.80;99.90;;;;;;5055613;28;20523;-66
2022/11/21 04:57:34;;;;;;;25.50;18.27;;;-0.80;99.90;;;;;;5061526;28;20480;-65
2022/11/21 04:59:59;;;;;;;29.25;20.05;;;-0.80;99.90;;;;;;5060692;28;20076;-66
2022/11/21 05:02:25;;;;;;;26.23;19.00;;;-0.80;99.90;;;;;;5061238;28;20170;-65
2022/11/21 05:04:51;;;;;;;25.25;18.63;;;-0.90;99.90;;;;;;5062015;28;20095;-65
2022/11/21 05:07:17;;;;;;;28.42;20.30;;;-0.90;99.90;;;;;;5062243;28;20131;-66
2022/11/21 05:09:43;;;;;;;27.55;19.25;;;-0.90;99.90;;;;;;5060040;28;20037;-66
2022/11/21 05:14:55;;;;;;;26.52;19.27;;;-1.00;99.90;;;;;;5056955;28;20198;-65
2022/11/21 05:17:21;;;;;;;30.15;19.95;;;-1.00;99.90;;;;;;5061245;28;20472;-65
2022/11/21 05:19:47;;;;;;;26.70;19.88;;;-1.00;99.90;;;;;;5056505;28;20043;-65
2022/11/21 05:22:12;;;;;;;27.33;19.15;;;-1.10;99.90;;;;;;5063626;28;20052;-65
2022/11/21 05:24:38;;;;;;;30.27;19.33;;;-1.10;99.90;;;;;;5064555;28;20068;-65
2022/11/21 05:27:04;;;;;;;26.85;18.58;;;-1.10;99.90;;;;;;5062087;28;20044;-65
2022/11/21 05:29:30;;;;;;;27.70;19.35;;;-1.10;99.90;;;;;;5060571;28;20386;-65
2022/11/21 05:31:56;;;;;;;26.65;19.02;;;-1.10;99.90;;;;;;5057246;28;20044;-65
2022/11/21 05:34:22;;;;;;;27.80;19.25;;;-1.20;99.90;;;;;;5059561;28;20072;-65
2022/11/21 05:36:48;;;;;;;28.38;19.30;;;-1.20;99.90;;;;;;5063232;28;20113;-65
2022/11/21 05:39:14;;;;;;;26.88;17.85;;;-1.20;99.90;;;;;;5066262;28;20032;-65
2022/11/21 05:41:40;;;;;;;29.45;19.00;;;-1.20;99.90;;;;;;5061721;28;20049;-65
2022/11/21 05:44:06;;;;;;;26.13;19.27;;;-1.20;99.90;;;;;;5057457;28;20037;-65
2022/11/21 05:46:32;;;;;;;29.65;19.45;;;-1.20;99.90;;;;;;5059809;28;20040;-65
2022/11/21 05:48:58;;;;;;;27.00;18.48;;;-1.20;99.90;;;;;;5064105;28;20503;-65
2022/11/21 05:51:24;;;;;;;25.70;17.90;;;-1.20;99.90;;;;;;5054395;28;20105;-64
2022/11/21 05:53:49;;;;;;;28.77;20.23;;;-1.20;99.90;;;;;;5061036;28;20043;-64
2022/11/21 05:56:17;;;;;;;29.83;19.35;;;-1.20;99.90;;;;;;5062342;28;20040;-64
2022/11/21 05:58:43;;;;;;;26.63;17.95;;;-1.30;99.90;;;;;;5061498;28;20372;-64
2022/11/21 06:01:11;;;;;;;26.20;18.58;;;-1.30;99.90;;;;;;5061691;28;20045;-64
2022/11/21 06:03:38;;;;;;;26.58;19.27;;;-1.30;99.90;;;;;;5055504;28;20217;-64
2022/11/21 06:06:06;;;;;;;25.08;17.92;;;-1.30;99.90;;;;;;5062971;28;20044;-64
2022/11/21 06:08:40;;;;;;;28.95;20.25;;;-1.30;99.90;;;;;;5059344;28;20169;-64
2022/11/21 06:11:08;;;;;;;33.47;20.88;;;-1.30;99.90;;;;;;5062839;28;20037;-64
2022/11/21 06:13:34;;;;;;;30.05;20.10;;;-1.30;99.90;;;;;;5059000;28;20045;-64
2022/11/21 06:16:02;;;;;;;31.20;21.83;;;-1.40;99.90;;;;;;5059433;28;20048;-64
2022/11/21 06:18:31;;;;;;;31.27;21.58;;;-1.40;99.90;;;;;;5061325;28;20036;-64
2022/11/21 06:21:07;;;;;;;30.55;21.25;;;-1.40;99.90;;;;;;5056620;28;20105;-64
2022/11/21 06:23:34;;;;;;;32.67;22.98;;;-1.40;99.90;;;;;;5061418;28;20335;-63
2022/11/21 06:26:03;;;;;;;36.97;24.30;;;-1.40;99.90;;;;;;5064168;28;20485;-64
2022/11/21 06:28:35;;;;;;;36.78;23.42;;;-1.40;99.90;;;;;;5060612;28;20472;-64
2022/11/21 06:31:13;;;;;;;36.83;23.58;;;-1.40;99.90;;;;;;5057339;28;20052;-64
2022/11/21 06:33:40;;;;;;;31.52;21.13;;;-1.40;99.90;;;;;;5058334;28;20491;-63
2022/11/21 06:36:11;;;;;;;31.92;21.17;;;-1.40;99.90;;;;;;5061135;28;20704;-64
2022/11/21 06:38:37;;;;;;;31.90;21.30;;;-1.40;99.90;;;;;;5061713;28;20040;-63
2022/11/21 06:41:04;;;;;;;32.67;22.90;;;-1.40;99.90;;;;;;5061405;28;20374;-63
2022/11/21 06:43:30;;;;;;;33.53;22.70;;;-1.50;99.90;;;;;;5057892;28;20743;-63
2022/11/21 06:45:57;;;;;;;34.03;22.38;;;-1.50;99.90;;;;;;5060548;28;20033;-64
2022/11/21 06:48:23;;;;;;;33.97;22.88;;;-1.50;99.90;;;;;;5062259;28;20045;-63
2022/11/21 06:50:49;;;;;;;35.22;22.80;;;-1.50;99.90;;;;;;5062216;28;20051;-64
2022/11/21 06:53:15;;;;;;;30.88;21.23;;;-1.50;99.90;;;;;;5059966;28;20095;-65
2022/11/21 06:55:40;;;;;;;33.22;22.52;;;-1.50;99.90;;;;;;5055864;28;20114;-64
2022/11/21 06:58:06;;;;;;;31.63;21.05;;;-1.50;99.90;;;;;;5056030;28;20072;-64
2022/11/21 07:00:32;;;;;;;33.63;23.02;;;-1.50;99.90;;;;;;5055584;28;20043;-64
2022/11/21 07:03:02;;;;;;;32.67;21.45;;;-1.50;99.90;;;;;;5060675;28;20466;-64
2022/11/21 07:05:28;;;;;;;33.53;22.38;;;-1.60;99.90;;;;;;5056130;28;20037;-64
2022/11/21 07:08:00;;;;;;;28.90;20.27;;;-1.50;99.90;;;;;;5063654;28;20106;-64
2022/11/21 07:10:27;;;;;;;29.92;20.70;;;-1.60;99.90;;;;;;5056373;28;20437;-64
2022/11/21 07:15:41;;;;;;;30.77;21.55;;;-1.50;99.90;;;;;;5054227;28;20048;-64
2022/11/21 07:18:07;;;;;;;32.67;22.00;;;-1.50;99.90;;;;;;5058263;28;20036;-64
2022/11/21 07:20:33;;;;;;;32.08;22.05;;;-1.50;99.90;;;;;;5060267;28;20400;-65
2022/11/21 07:22:59;;;;;;;33.55;23.08;;;-1.50;99.90;;;;;;5067701;28;20060;-65
2022/11/21 07:25:25;;;;;;;34.53;22.92;;;-1.50;99.90;;;;;;5063657;28;20353;-64
2022/11/21 07:27:51;;;;;;;34.75;22.70;;;-1.50;99.90;;;;;;5061722;28;20055;-65
2022/11/21 07:30:17;;;;;;;29.65;21.08;;;-1.50;99.90;;;;;;5061246;28;20441;-65
2022/11/21 07:32:42;;;;;;;34.60;22.48;;;-1.50;99.90;;;;;;5065354;28;20041;-65
2022/11/21 07:35:09;;;;;;;32.22;21.05;;;-1.40;99.90;;;;;;5061197;28;20404;-65
2022/11/21 07:37:38;;;;;;;33.70;22.80;;;-1.40;99.90;;;;;;5063030;28;20381;-65
2022/11/21 07:40:05;;;;;;;33.08;22.33;;;-1.40;99.90;;;;;;5062212;28;20053;-65
2022/11/21 07:42:33;;;;;;;33.28;22.15;;;-1.40;99.90;;;;;;5064425;28;20044;-65
2022/11/21 07:44:59;;;;;;;33.20;21.80;;;-1.40;99.90;;;;;;5062132;28;20021;-65
2022/11/21 07:47:25;;;;;;;30.48;20.77;;;-1.40;99.90;;;;;;5060857;28;20039;-65
2022/11/21 07:49:50;;;;;;;30.90;21.67;;;-1.30;99.90;;;;;;5061710;28;20424;-65
2022/11/21 07:52:16;;;;;;;31.10;21.80;;;-1.30;99.90;;;;;;5062263;28;20036;-65
2022/11/21 07:54:42;;;;;;;31.48;21.30;;;-1.20;99.90;;;;;;5063807;28;20168;-65
2022/11/21 07:57:07;;;;;;;34.58;22.33;;;-1.20;99.90;;;;;;5060165;28;20384;-65
2022/11/21 07:59:33;;;;;;;36.38;23.77;;;-1.20;99.90;;;;;;5063501;28;20063;-65
2022/11/21 08:01:59;;;;;;;35.40;24.08;;;-1.10;99.90;;;;;;5062999;28;20074;-65
2022/11/21 08:04:25;;;;;;;32.65;23.00;;;-1.00;99.90;;;;;;5060154;28;20033;-65
2022/11/21 08:06:50;;;;;;;38.33;23.45;;;-0.80;99.90;;;;;;5064549;28;20040;-65
2022/11/21 08:09:16;;;;;;;35.83;23.02;;;-0.70;99.90;;;;;;5065629;28;20055;-66
2022/11/21 08:11:42;;;;;;;35.20;22.90;;;-0.60;99.90;;;;;;5061461;28;20527;-65
2022/11/21 08:14:08;;;;;;;36.17;23.40;;;-0.50;99.90;;;;;;5064303;28;20465;-65
2022/11/21 08:16:33;;;;;;;35.67;23.77;;;-0.50;99.90;;;;;;5053347;28;20045;-65
2022/11/21 08:18:59;;;;;;;33.28;23.33;;;-0.40;99.90;;;;;;5062876;28;20067;-65
2022/11/21 08:21:25;;;;;;;35.85;23.40;;;-0.40;99.90;;;;;;5060033;28;20120;-65
2022/11/21 08:23:52;;;;;;;35.05;23.27;;;-0.30;99.90;;;;;;5063373;28;20106;-65
2022/11/21 08:26:17;;;;;;;32.17;22.63;;;-0.10;99.90;;;;;;5055039;28;20341;-65
2022/11/21 08:28:43;;;;;;;33.50;24.38;;;0.00;99.90;;;;;;5065177;28;20139;-65
2022/11/21 08:31:09;;;;;;;33.72;23.38;;;0.10;99.90;;;;;;5060037;28;20044;-66
2022/11/21 08:33:38;;;;;;;37.45;24.05;;;0.20;99.90;;;;;;5062147;28;20146;-66
2022/11/21 08:36:05;;;;;;;34.47;24.67;;;0.30;99.90;;;;;;5061759;28;20105;-66
2022/11/21 08:38:31;;;;;;;33.33;22.98;;;0.40;99.90;;;;;;5064178;28;20044;-66
2022/11/21 08:43:41;;;;;;;38.05;24.77;;;0.70;99.90;;;;;;5062615;28;20472;-66
2022/11/21 08:46:07;;;;;;;33.42;23.52;;;1.00;99.90;;;;;;5061423;28;20456;-66
2022/11/21 08:48:33;;;;;;;34.40;24.58;;;1.00;99.90;;;;;;5060873;28;20058;-67
2022/11/21 08:50:59;;;;;;;33.60;24.17;;;1.20;99.90;;;;;;5059365;28;20392;-67
2022/11/21 08:53:24;;;;;;;37.15;23.83;;;1.30;99.90;;;;;;5055947;28;20093;-67
2022/11/21 08:55:50;;;;;;;33.58;22.45;;;1.20;99.90;;;;;;5060705;28;20534;-67
2022/11/21 08:58:16;;;;;;;33.20;21.90;;;1.20;99.90;;;;;;5059940;28;20369;-67
2022/11/21 09:00:41;;;;;;;31.85;21.88;;;1.10;99.90;;;;;;5060632;28;20052;-66
2022/11/21 09:03:07;;;;;;;32.42;22.58;;;1.10;99.90;;;;;;5057909;28;20408;-66
2022/11/21 09:05:33;;;;;;;31.23;21.08;;;1.00;99.90;;;;;;5062817;28;20037;-66
2022/11/21 09:07:59;;;;;;;34.00;23.48;;;1.00;99.90;;;;;;5061494;28;20040;-66
2022/11/21 09:10:30;;;;;;;30.20;20.65;;;0.90;99.90;;;;;;5062208;28;20041;-67
2022/11/21 09:12:59;;;;;;;38.47;21.05;;;0.90;99.90;;;;;;5062290;28;20117;-66
2022/11/21 09:18:10;;;;;;;30.70;19.75;;;0.80;99.90;;;;;;5062157;28;20488;-66
2022/11/21 09:20:41;;;;;;;30.42;20.35;;;0.80;99.90;;;;;;5061973;28;20187;-66
2022/11/21 09:23:09;;;;;;;31.83;21.67;;;0.80;99.90;;;;;;5065381;28;20055;-66
2022/11/21 09:25:35;;;;;;;30.52;19.58;;;0.80;99.90;;;;;;5064312;28;20040;-65
2022/11/21 09:28:02;;;;;;;33.15;20.35;;;0.90;99.90;;;;;;5062289;28;20103;-66
2022/11/21 09:30:28;;;;;;;39.38;19.48;;;0.80;99.90;;;;;;5076454;28;20043;-66
2022/11/21 09:32:57;;;;;;;34.22;19.38;;;0.80;99.90;;;;;;5064242;28;20040;-65
2022/11/21 09:35:23;;;;;;;33.47;18.88;;;0.80;99.90;;;;;;5062680;28;20029;-65
2022/11/21 09:37:50;;;;;;;29.00;17.98;;;0.80;99.90;;;;;;5065280;28;20036;-65
2022/11/21 09:40:16;;;;;;;31.33;19.25;;;0.80;99.90;;;;;;5061645;28;20044;-66
2022/11/21 09:43:14;;;;;;;26.73;18.75;;;0.80;99.90;;;;;;5063089;28;20060;-66
2022/11/21 09:45:48;;;;;;;25.08;17.40;;;0.80;99.90;;;;;;5030985;28;20484;-65
2022/11/21 09:48:19;;;;;;;27.58;17.58;;;0.80;99.90;;;;;;5063328;28;20044;-65
2022/11/21 09:50:50;;;;;;;29.13;19.45;;;0.80;99.90;;;;;;5062500;28;20046;-66
2022/11/21 09:53:24;;;;;;;32.13;20.02;;;0.80;99.90;;;;;;5066611;28;20467;-65
2022/11/21 09:56:00;;;;;;;26.70;18.20;;;0.90;99.90;;;;;;5064456;28;20459;-65
2022/11/21 09:58:40;;;;;;;30.85;19.13;;;0.80;99.90;;;;;;5059902;28;20060;-65
2022/11/21 10:01:13;;;;;;;30.52;19.65;;;0.90;99.90;;;;;;5056746;28;20571;-66
2022/11/21 10:03:45;;;;;;;28.90;18.98;;;0.90;99.90;;;;;;5061576;28;20068;-66
2022/11/21 10:06:19;;;;;;;29.15;19.40;;;1.00;99.90;;;;;;5059491;28;20511;-65
2022/11/21 10:09:08;;;;;;;29.67;18.83;;;1.00;99.90;;;;;;5057304;28;20116;-65
2022/11/21 10:14:53;;;;;;;31.38;19.58;;;1.10;99.90;;;;;;5061419;28;20411;-66
2022/11/21 10:17:46;;;;;;;30.30;20.02;;;1.20;99.90;;;;;;5060400;28;20042;-65
2022/11/21 10:20:31;;;;;;;30.83;19.92;;;1.20;99.90;;;;;;5058210;28;20032;-65
2022/11/21 10:23:14;;;;;;;26.92;20.17;;;1.30;99.90;;;;;;5064539;28;20057;-66
2022/11/21 10:25:49;;;;;;;28.63;20.17;;;1.30;99.90;;;;;;5060402;28;20052;-65
2022/11/21 10:28:21;;;;;;;25.90;19.02;;;1.30;99.90;;;;;;5058942;28;20412;-66
2022/11/21 10:30:50;;;;;;;28.73;18.75;;;1.30;99.90;;;;;;5054662;28;20060;-66
2022/11/21 10:33:33;;;;;;;31.35;19.25;;;1.40;99.90;;;;;;5063229;28;20059;-66
2022/11/21 10:36:06;;;;;;;27.70;19.27;;;1.40;99.90;;;;;;5061677;28;20452;-66
2022/11/21 10:38:37;;;;;;;28.00;19.63;;;1.50;99.90;;;;;;5058987;28;20466;-66
2022/11/21 10:41:23;;;;;;;26.75;18.80;;;1.70;99.90;;;;;;5057747;28;20049;-65
2022/11/21 10:46:59;;;;;;;30.85;19.90;;;2.10;99.90;;;;;;5056130;28;20039;-66
2022/11/21 10:49:27;;;;;;;27.83;20.15;;;2.10;99.90;;;;;;5060858;28;20040;-66
2022/11/21 10:52:03;;;;;;;29.65;21.20;;;2.10;99.90;;;;;;5059805;28;20048;-66
2022/11/21 10:54:31;;;;;;;26.85;19.00;;;2.30;99.90;;;;;;5063560;28;20047;-66
2022/11/21 10:57:12;;;;;;;27.02;19.38;;;2.40;99.90;;;;;;5055747;28;20496;-66
2022/11/21 10:59:38;;;;;;;25.00;18.15;;;2.50;99.90;;;;;;5064071;28;20082;-66
2022/11/21 11:02:13;;;;;;;23.42;18.50;;;2.60;99.90;;;;;;5054699;28;20055;-66
2022/11/21 11:04:39;;;;;;;22.42;17.85;;;2.70;99.90;;;;;;5062812;28;20041;-66
2022/11/21 11:07:22;;;;;;;21.92;17.45;;;2.60;99.90;;;;;;5060095;28;20507;-66
2022/11/21 11:09:48;;;;;;;23.70;18.73;;;2.70;99.90;;;;;;5067247;28;20119;-66
2022/11/21 11:15:25;;;;;;;23.05;17.77;;;2.70;99.90;;;;;;5065062;28;20452;-66
2022/11/21 11:17:57;;;;;;;22.35;18.00;;;2.80;99.90;;;;;;5063565;28;20099;-66
2022/11/21 11:20:40;;;;;;;23.65;17.42;;;2.80;99.90;;;;;;5068730;28;20044;-66
2022/11/21 11:23:21;;;;;;;20.27;16.55;;;2.90;99.90;;;;;;5069275;28;20608;-66
2022/11/21 11:25:58;;;;;;;21.33;16.83;;;3.00;99.90;;;;;;5065719;28;20032;-66
2022/11/21 11:28:26;;;;;;;20.27;16.63;;;3.20;99.90;;;;;;5060763;28;20051;-66
2022/11/21 11:30:55;;;;;;;22.50;16.95;;;3.30;99.90;;;;;;5065994;28;20068;-66
2022/11/21 11:33:47;;;;;;;20.17;16.23;;;3.30;99.90;;;;;;5061392;28;20041;-66
2022/11/21 11:36:43;;;;;;;19.73;15.55;;;3.40;99.90;;;;;;5064235;28;20144;-66
2022/11/21 11:39:32;;;;;;;18.90;14.60;;;3.50;99.90;;;;;;5060387;28;20529;-66
2022/11/21 11:47:56;;;;;;;16.70;14.18;;;3.70;99.90;;;;;;5060595;28;20032;-66
2022/11/21 11:50:47;;;;;;;16.92;13.98;;;3.80;99.90;;;;;;5065626;28;20044;-66
2022/11/21 11:53:32;;;;;;;17.42;14.32;;;4.00;99.90;;;;;;5063319;28;20128;-66
2022/11/21 11:56:07;;;;;;;15.93;13.13;;;4.20;99.90;;;;;;5063855;28;20170;-66
2022/11/21 11:59:02;;;;;;;16.98;13.32;;;4.30;99.90;;;;;;5066324;28;20037;-66
2022/11/21 12:01:36;;;;;;;15.90;13.23;;;4.30;99.90;;;;;;5068828;28;20397;-66
2022/11/21 12:04:15;;;;;;;16.00;13.60;;;4.30;99.90;;;;;;5063188;28;20056;-66
2022/11/21 12:06:58;;;;;;;18.67;13.68;;;4.20;99.90;;;;;;5066397;28;20037;-66
2022/11/21 12:09:49;;;;;;;15.43;12.77;;;4.10;99.90;;;;;;5064083;28;20036;-66
2022/11/21 12:12:22;;;;;;;16.27;12.90;;;4.00;99.90;;;;;;5061756;28;20357;-64
2022/11/21 12:18:18;;;;;;;14.90;12.25;;;4.00;99.90;;;;;;5061176;28;20166;-65
2022/11/21 12:20:43;;;;;;;15.43;12.40;;;4.00;99.90;;;;;;5063518;28;20115;-65
2022/11/21 12:23:10;;;;;;;13.65;11.50;;;4.00;99.90;;;;;;5057911;28;20123;-64
2022/11/21 12:25:41;;;;;;;15.90;13.13;;;4.00;99.90;;;;;;5062365;28;20067;-65
2022/11/21 12:28:21;;;;;;;15.73;12.32;;;4.10;99.90;;;;;;5061441;28;20048;-65
2022/11/21 12:30:58;;;;;;;16.10;13.40;;;4.10;99.90;;;;;;5060789;28;20045;-64
2022/11/21 12:33:24;;;;;;;16.02;13.38;;;4.20;99.90;;;;;;5060660;28;20152;-65
2022/11/21 12:36:10;;;;;;;15.43;12.63;;;4.20;99.90;;;;;;5060747;28;20207;-65
2022/11/21 12:38:53;;;;;;;15.00;12.23;;;4.20;99.90;;;;;;5064600;28;20574;-64
2022/11/21 12:45:09;;;;;;;16.73;13.20;;;4.30;99.90;;;;;;5058998;28;20103;-64
2022/11/21 12:56:56;;;;;;;16.88;13.43;;;4.30;99.90;;;;;;5063972;28;20055;-64
2022/11/21 12:59:24;;;;;;;16.70;14.07;;;4.20;99.90;;;;;;5059885;28;20037;-64
2022/11/21 13:02:01;;;;;;;14.88;13.15;;;4.30;99.90;;;;;;5058490;28;20036;-63
2022/11/21 13:04:33;;;;;;;17.38;14.60;;;4.30;99.90;;;;;;5061543;28;20033;-64
2022/11/21 13:07:01;;;;;;;19.70;14.30;;;4.20;99.90;;;;;;5057916;28;20037;-63
2022/11/21 13:09:32;;;;;;;18.75;14.48;;;4.20;99.90;;;;;;5060728;28;20084;-63
2022/11/21 13:12:27;;;;;;;20.35;15.50;;;4.20;99.90;;;;;;5053817;28;20037;-64
2022/11/21 13:15:01;;;;;;;17.83;13.85;;;4.20;99.90;;;;;;5059096;28;20455;-63
2022/11/21 13:17:30;;;;;;;20.33;15.77;;;4.20;99.90;;;;;;5064766;28;20046;-65
2022/11/21 13:20:02;;;;;;;21.40;16.83;;;4.20;99.90;;;;;;5059943;28;20056;-65
2022/11/21 13:22:52;;;;;;;21.02;15.70;;;4.30;99.90;;;;;;5064336;28;20049;-64
2022/11/21 13:25:38;;;;;;;20.10;15.25;;;4.30;99.90;;;;;;5055861;28;20049;-64
2022/11/21 13:28:16;;;;;;;19.83;16.08;;;4.40;99.90;;;;;;5061763;28;20033;-64